Time;durP1;ratioP1;P1;durP2;ratioP2;P2;SDS_P1;SDS_P2;PMS_P1;PMS_P2;Temp;Humidity;BMP_temperature;BMP_pressure;BME280_temperature;BME280_humidity;BME280_pressure;Samples;Min_cycle;Max_cycle;Signal;HPM_P1;HPM_P2
2022/04/07 00:00:14;;;;;;;17.10;3.13;;;10.10;99.90;;;;;;4985155;28;20105;-56
2022/04/07 00:02:40;;;;;;;20.85;4.15;;;10.20;99.90;;;;;;4984289;28;20078;-56
2022/04/07 00:05:07;;;;;;;20.17;3.25;;;10.20;99.90;;;;;;4985011;28;20046;-57
2022/04/07 00:07:34;;;;;;;20.90;4.32;;;10.20;99.90;;;;;;4985599;28;20568;-55
2022/04/07 00:10:01;;;;;;;18.80;3.53;;;10.20;99.90;;;;;;4986309;28;20130;-58
2022/04/07 00:12:29;;;;;;;22.17;5.13;;;10.20;99.90;;;;;;4986717;28;20093;-56
2022/04/07 00:14:55;;;;;;;17.52;4.93;;;10.20;99.90;;;;;;4988127;28;20502;-56
2022/04/07 00:17:23;;;;;;;28.35;6.38;;;10.30;99.90;;;;;;4974147;28;20058;-57
2022/04/07 00:19:50;;;;;;;33.75;4.75;;;10.30;99.90;;;;;;4973421;28;20207;-55
2022/04/07 00:22:17;;;;;;;22.30;4.03;;;10.30;99.90;;;;;;4982811;28;20585;-57
2022/04/07 00:24:44;;;;;;;27.63;4.20;;;10.30;99.90;;;;;;4973380;28;20050;-55
2022/04/07 00:27:11;;;;;;;24.75;4.35;;;10.30;99.90;;;;;;4982479;28;20074;-56
2022/04/07 00:29:38;;;;;;;36.25;7.63;;;10.30;99.90;;;;;;4971373;28;20090;-55
2022/04/07 00:32:06;;;;;;;26.70;4.97;;;10.30;99.90;;;;;;4977894;28;20125;-58
2022/04/07 00:34:33;;;;;;;32.72;5.13;;;10.30;99.90;;;;;;4990538;28;20046;-56
2022/04/07 00:37:00;;;;;;;22.23;3.72;;;10.30;99.90;;;;;;4975116;28;20097;-57
2022/04/07 00:39:27;;;;;;;34.92;4.00;;;10.40;99.90;;;;;;4985243;28;20053;-55
2022/04/07 00:41:54;;;;;;;30.83;4.22;;;10.30;99.90;;;;;;4985468;28;20060;-55
2022/04/07 00:44:22;;;;;;;30.92;6.40;;;10.40;99.90;;;;;;4990122;28;20132;-56
2022/04/07 00:46:49;;;;;;;24.13;3.47;;;10.50;99.90;;;;;;4977958;28;20101;-56
2022/04/07 00:49:16;;;;;;;25.08;4.32;;;10.40;99.90;;;;;;4988255;28;20086;-56
2022/04/07 00:51:43;;;;;;;25.45;4.25;;;10.40;99.90;;;;;;4982633;28;20091;-56
2022/04/07 00:54:11;;;;;;;25.83;4.97;;;10.40;99.90;;;;;;4986069;28;20046;-56
2022/04/07 00:56:38;;;;;;;21.90;4.57;;;10.50;99.90;;;;;;4986214;28;20267;-58
2022/04/07 00:59:05;;;;;;;21.70;3.70;;;10.50;99.90;;;;;;4981703;28;20078;-57
2022/04/07 01:01:32;;;;;;;21.08;3.95;;;10.50;99.90;;;;;;4974377;28;20082;-57
2022/04/07 01:03:59;;;;;;;28.38;4.70;;;10.50;99.90;;;;;;4979746;28;20046;-57
2022/04/07 01:06:26;;;;;;;16.02;3.92;;;10.50;99.90;;;;;;4960802;28;20131;-54
2022/04/07 01:08:53;;;;;;;28.27;5.22;;;10.50;99.90;;;;;;4979322;28;20129;-59
2022/04/07 01:11:20;;;;;;;19.05;3.70;;;10.50;99.90;;;;;;4970842;28;20050;-55
2022/04/07 01:13:50;;;;;;;22.42;3.25;;;10.50;99.90;;;;;;4987956;28;20042;-55
2022/04/07 01:16:18;;;;;;;23.80;3.15;;;10.60;99.90;;;;;;4986578;28;20133;-57
2022/04/07 01:18:46;;;;;;;20.95;5.78;;;10.60;99.90;;;;;;4983589;28;20042;-56
2022/04/07 01:21:16;;;;;;;23.48;3.50;;;10.60;99.90;;;;;;4990161;28;20109;-55
2022/04/07 01:24:15;;;;;;;20.67;3.80;;;10.60;99.90;;;;;;4969916;28;20058;-56
2022/04/07 01:26:43;;;;;;;22.10;3.97;;;10.60;99.90;;;;;;4955821;28;20478;-58
2022/04/07 01:29:15;;;;;;;23.98;4.13;;;10.50;99.90;;;;;;4979032;28;20088;-57
2022/04/07 01:31:42;;;;;;;25.48;4.43;;;10.50;99.90;;;;;;4989070;28;20089;-51
2022/04/07 01:34:13;;;;;;;26.25;5.28;;;10.40;99.90;;;;;;4639696;28;10000628;-57
2022/04/07 01:36:41;;;;;;;16.98;4.55;;;10.40;99.90;;;;;;4986943;28;20088;-57
2022/04/07 01:39:09;;;;;;;24.35;4.43;;;10.20;99.90;;;;;;4983784;28;20101;-55
2022/04/07 01:41:36;;;;;;;27.23;4.07;;;10.00;99.90;;;;;;4988935;28;20116;-54
2022/04/07 01:44:03;;;;;;;21.73;3.53;;;9.90;99.90;;;;;;4970819;28;20050;-56
2022/04/07 01:46:30;;;;;;;24.55;3.65;;;9.70;99.90;;;;;;4988010;28;20050;-54
2022/04/07 01:48:57;;;;;;;29.10;4.88;;;9.60;99.90;;;;;;4972129;28;20103;-56
2022/04/07 01:51:26;;;;;;;32.40;4.20;;;9.60;99.90;;;;;;4999639;28;20321;-55
2022/04/07 01:53:53;;;;;;;15.40;2.78;;;9.50;99.90;;;;;;4981221;28;20105;-56
2022/04/07 01:56:21;;;;;;;22.95;5.65;;;9.50;99.90;;;;;;4984967;28;20142;-58
2022/04/07 01:58:48;;;;;;;21.23;3.55;;;9.50;99.90;;;;;;4971795;28;20073;-55
2022/04/07 02:01:15;;;;;;;18.55;3.47;;;9.40;99.90;;;;;;4987905;28;20085;-56
2022/04/07 02:03:42;;;;;;;11.88;2.75;;;9.50;99.90;;;;;;4984403;28;20391;-59
2022/04/07 02:06:13;;;;;;;23.38;2.80;;;9.40;99.90;;;;;;4979402;28;20065;-56
2022/04/07 02:08:40;;;;;;;9.88;3.17;;;9.40;99.90;;;;;;4958111;28;20053;-57
2022/04/07 02:11:07;;;;;;;18.95;3.92;;;9.40;99.90;;;;;;4979800;28;20081;-55
2022/04/07 02:13:34;;;;;;;14.35;3.13;;;9.30;99.90;;;;;;4987560;28;20053;-56
2022/04/07 02:16:01;;;;;;;8.68;1.75;;;9.10;99.90;;;;;;4982746;28;20133;-58
2022/04/07 02:18:28;;;;;;;7.20;1.75;;;8.70;99.90;;;;;;4987795;28;20046;-57
2022/04/07 02:20:55;;;;;;;6.38;1.10;;;8.50;99.90;;;;;;4980535;28;20097;-57
2022/04/07 02:23:22;;;;;;;1.70;0.95;;;8.30;99.90;;;;;;4969762;28;20105;-58
2022/04/07 02:25:48;;;;;;;5.28;1.08;;;8.20;99.90;;;;;;4976433;28;20133;-58
2022/04/07 02:28:15;;;;;;;3.47;0.70;;;8.20;99.90;;;;;;4988799;28;20140;-58
2022/04/07 02:30:42;;;;;;;2.97;0.70;;;8.10;99.90;;;;;;4983377;28;20424;-54
2022/04/07 02:33:09;;;;;;;4.55;0.50;;;8.10;99.90;;;;;;4969462;28;20137;-55
2022/04/07 02:35:35;;;;;;;6.07;1.13;;;8.00;99.90;;;;;;4973414;28;20055;-55
2022/04/07 02:38:02;;;;;;;2.70;0.50;;;8.00;99.90;;;;;;4987365;28;20050;-58
2022/04/07 02:40:29;;;;;;;4.43;0.60;;;8.00;99.90;;;;;;4983766;28;20078;-57
2022/04/07 02:42:56;;;;;;;5.30;1.40;;;8.10;99.90;;;;;;4970457;28;20085;-57
2022/04/07 02:45:22;;;;;;;3.97;0.73;;;7.90;99.90;;;;;;4972945;28;20057;-56
2022/04/07 02:47:49;;;;;;;4.53;0.57;;;7.90;99.90;;;;;;4978938;28;20077;-58
2022/04/07 02:50:19;;;;;;;3.30;0.63;;;7.90;99.90;;;;;;4983205;28;20134;-55
2022/04/07 02:52:46;;;;;;;4.88;0.80;;;7.90;99.90;;;;;;4976139;28;20078;-57
2022/04/07 02:55:12;;;;;;;3.50;0.75;;;7.90;99.90;;;;;;4957919;28;20050;-57
2022/04/07 02:57:39;;;;;;;1.90;0.82;;;7.90;99.90;;;;;;4979001;28;20150;-58
2022/04/07 03:00:06;;;;;;;5.95;0.90;;;7.90;99.90;;;;;;4985652;28;20129;-57
2022/04/07 03:02:33;;;;;;;7.05;0.85;;;7.80;99.90;;;;;;4980059;28;20078;-59
2022/04/07 03:05:00;;;;;;;5.82;2.88;;;7.80;99.90;;;;;;4969767;28;20046;-55
2022/04/07 03:07:26;;;;;;;5.25;0.80;;;7.90;99.90;;;;;;4971978;28;20138;-59
2022/04/07 03:09:53;;;;;;;3.80;0.88;;;7.80;99.90;;;;;;4969565;28;20078;-58
2022/04/07 03:12:20;;;;;;;3.80;0.95;;;7.80;99.90;;;;;;4980751;28;20186;-58
2022/04/07 03:14:47;;;;;;;8.65;2.03;;;7.80;99.90;;;;;;4973391;28;20097;-56
2022/04/07 03:17:14;;;;;;;5.97;1.10;;;7.70;99.90;;;;;;4984206;28;20481;-55
2022/04/07 03:19:41;;;;;;;4.80;1.30;;;7.70;99.90;;;;;;4988439;28;20088;-55
2022/04/07 03:22:08;;;;;;;7.50;1.15;;;7.70;99.90;;;;;;4976970;28;20130;-55
2022/04/07 03:24:34;;;;;;;1.45;0.68;;;7.80;99.90;;;;;;4987851;28;20089;-57
2022/04/07 03:27:07;;;;;;;7.40;1.27;;;7.60;99.90;;;;;;4978737;28;20502;-58
2022/04/07 03:29:34;;;;;;;2.45;0.60;;;7.60;99.90;;;;;;4968717;28;20050;-55
2022/04/07 03:32:02;;;;;;;5.75;1.20;;;7.60;99.90;;;;;;4978881;28;20047;-55
2022/04/07 03:34:29;;;;;;;5.53;1.10;;;7.50;99.90;;;;;;4968879;28;20070;-53
2022/04/07 03:36:55;;;;;;;5.72;1.00;;;7.40;99.90;;;;;;4974036;28;20137;-56
2022/04/07 03:39:22;;;;;;;5.53;1.05;;;7.40;99.90;;;;;;4976737;28;20046;-56
2022/04/07 03:41:49;;;;;;;6.05;1.05;;;7.30;99.90;;;;;;4982962;28;20070;-58
2022/04/07 03:44:16;;;;;;;3.70;0.50;;;7.20;99.90;;;;;;4976779;28;20059;-57
2022/04/07 03:46:43;;;;;;;2.40;0.60;;;7.20;99.90;;;;;;4975380;28;20190;-57
2022/04/07 03:49:10;;;;;;;3.20;0.65;;;7.20;99.90;;;;;;4979430;28;20134;-57
2022/04/07 03:51:36;;;;;;;3.60;0.45;;;7.10;99.90;;;;;;4969900;28;20267;-57
2022/04/07 03:54:09;;;;;;;4.05;0.55;;;7.00;99.90;;;;;;4977148;28;20050;-59
2022/04/07 03:56:36;;;;;;;5.15;0.85;;;6.90;99.90;;;;;;4987005;28;20104;-56
2022/04/07 03:59:03;;;;;;;2.63;0.90;;;6.80;99.90;;;;;;4976655;28;20085;-56
2022/04/07 04:01:30;;;;;;;8.02;2.35;;;6.80;99.90;;;;;;4985740;28;20085;-57
2022/04/07 04:03:56;;;;;;;3.55;0.80;;;6.80;99.90;;;;;;4987439;28;20061;-57
2022/04/07 04:06:23;;;;;;;4.32;1.38;;;6.80;99.90;;;;;;4984818;28;20837;-55
2022/04/07 04:08:50;;;;;;;3.20;1.10;;;6.80;99.90;;;;;;4976246;28;20150;-58
2022/04/07 04:11:18;;;;;;;4.20;1.20;;;6.80;99.90;;;;;;4991492;28;20053;-56
2022/04/07 04:13:45;;;;;;;6.18;1.23;;;6.70;99.90;;;;;;4981279;28;20087;-58
2022/04/07 04:16:14;;;;;;;2.80;0.77;;;6.80;99.90;;;;;;4982947;28;20058;-57
2022/04/07 04:18:45;;;;;;;2.67;0.95;;;6.80;99.90;;;;;;4967586;28;20129;-56
2022/04/07 04:21:11;;;;;;;2.97;0.93;;;6.80;99.90;;;;;;4975513;28;20129;-57
2022/04/07 04:23:40;;;;;;;5.20;1.25;;;6.80;99.90;;;;;;4978440;28;20074;-55
2022/04/07 04:26:06;;;;;;;8.38;1.45;;;6.70;99.90;;;;;;4977135;28;20090;-57
2022/04/07 04:28:33;;;;;;;6.22;1.27;;;6.70;99.90;;;;;;4975484;28;20073;-57
2022/04/07 04:31:00;;;;;;;3.83;1.00;;;6.70;99.90;;;;;;4983704;28;20109;-56
2022/04/07 04:33:27;;;;;;;14.10;2.63;;;6.70;99.90;;;;;;4988614;28;20050;-57
2022/04/07 04:35:58;;;;;;;1.63;0.77;;;6.70;99.90;;;;;;4965078;28;20054;-57
2022/04/07 04:38:24;;;;;;;9.15;1.45;;;6.70;99.90;;;;;;4989483;28;20108;-57
2022/04/07 04:40:51;;;;;;;3.95;1.13;;;6.60;99.90;;;;;;4985497;28;20074;-57
2022/04/07 04:43:18;;;;;;;8.95;1.20;;;6.60;99.90;;;;;;4984170;28;20142;-58
2022/04/07 04:45:44;;;;;;;3.97;1.10;;;6.60;99.90;;;;;;4984263;28;20082;-54
2022/04/07 04:48:11;;;;;;;2.90;1.42;;;6.60;99.90;;;;;;4980672;28;20461;-55
2022/04/07 04:50:38;;;;;;;6.93;0.98;;;6.60;99.90;;;;;;4977203;28;20082;-58
2022/04/07 04:53:05;;;;;;;5.68;0.98;;;6.60;99.90;;;;;;4990981;28;20226;-57
2022/04/07 04:55:32;;;;;;;2.20;0.90;;;6.60;99.90;;;;;;4985209;28;20085;-55
2022/04/07 04:57:59;;;;;;;5.68;1.05;;;6.70;99.90;;;;;;4971351;28;20089;-56
2022/04/07 05:00:26;;;;;;;5.95;2.45;;;6.70;99.90;;;;;;4975338;28;20549;-56
2022/04/07 05:02:52;;;;;;;4.82;0.90;;;6.70;99.90;;;;;;4990021;28;20129;-56
2022/04/07 05:05:19;;;;;;;6.50;1.48;;;6.70;99.90;;;;;;4986422;28;20129;-55
2022/04/07 05:07:46;;;;;;;4.97;1.00;;;6.70;99.90;;;;;;4973979;28;20134;-57
2022/04/07 05:10:13;;;;;;;2.80;0.75;;;6.80;99.90;;;;;;4974986;28;20142;-61
2022/04/07 05:12:40;;;;;;;3.70;1.00;;;6.80;99.90;;;;;;4984899;28;20053;-57
2022/04/07 05:15:08;;;;;;;5.10;0.98;;;6.80;99.90;;;;;;4985950;28;20137;-56
2022/04/07 05:17:34;;;;;;;6.95;0.80;;;6.90;99.90;;;;;;4982668;28;20093;-57
2022/04/07 05:20:02;;;;;;;7.47;1.20;;;6.90;99.90;;;;;;4984951;28;20051;-58
2022/04/07 05:22:29;;;;;;;3.63;0.85;;;6.90;99.90;;;;;;4990318;28;20089;-60
2022/04/07 05:24:56;;;;;;;16.38;1.92;;;7.00;99.90;;;;;;4988457;28;20074;-58
2022/04/07 05:27:22;;;;;;;8.73;2.38;;;6.90;99.90;;;;;;4972323;28;20066;-54
2022/04/07 05:29:49;;;;;;;6.97;1.15;;;7.00;99.90;;;;;;4971515;28;20043;-52
2022/04/07 05:32:16;;;;;;;8.73;1.27;;;6.90;99.90;;;;;;4979243;28;20209;-55
2022/04/07 05:34:43;;;;;;;4.82;1.10;;;7.00;99.90;;;;;;4989389;28;20044;-56
2022/04/07 05:37:09;;;;;;;10.60;1.77;;;7.00;99.90;;;;;;4984510;28;20050;-57
2022/04/07 05:39:36;;;;;;;10.13;1.30;;;7.00;99.90;;;;;;4973408;28;20125;-56
2022/04/07 05:42:03;;;;;;;11.50;1.80;;;6.90;99.90;;;;;;4985583;28;20190;-52
2022/04/07 05:44:30;;;;;;;12.55;1.63;;;7.00;99.90;;;;;;4970230;28;20046;-56
2022/04/07 05:46:57;;;;;;;7.55;1.80;;;7.00;99.90;;;;;;4973581;28;20042;-57
2022/04/07 05:49:24;;;;;;;8.10;1.90;;;7.00;99.90;;;;;;4988139;28;20140;-57
2022/04/07 05:51:53;;;;;;;7.95;1.60;;;7.00;99.90;;;;;;4985126;28;20050;-58
2022/04/07 05:54:20;;;;;;;4.20;1.92;;;7.00;99.90;;;;;;4973313;28;20074;-55
2022/04/07 05:56:47;;;;;;;10.07;2.25;;;7.00;99.90;;;;;;4974128;28;20211;-55
2022/04/07 05:59:14;;;;;;;9.18;1.42;;;7.00;99.90;;;;;;4983764;28;20076;-53
2022/04/07 06:01:41;;;;;;;8.35;1.48;;;7.00;99.90;;;;;;4984747;28;20101;-58
2022/04/07 06:04:08;;;;;;;6.07;1.90;;;7.00;99.90;;;;;;4982023;28;20050;-55
2022/04/07 06:06:34;;;;;;;6.50;1.30;;;7.00;99.90;;;;;;4984148;28;20134;-58
2022/04/07 06:09:02;;;;;;;10.38;2.42;;;7.00;99.90;;;;;;4982090;28;20137;-56
2022/04/07 06:11:29;;;;;;;10.82;2.90;;;7.10;99.90;;;;;;4967537;28;20088;-57
2022/04/07 06:13:55;;;;;;;11.93;2.50;;;7.10;99.90;;;;;;4979383;28;20087;-57
2022/04/07 06:16:22;;;;;;;13.70;3.03;;;7.10;99.90;;;;;;4980099;28;20051;-57
2022/04/07 06:18:51;;;;;;;12.02;4.00;;;7.10;99.90;;;;;;4979729;28;20134;-57
2022/04/07 06:21:18;;;;;;;18.17;2.47;;;7.20;99.90;;;;;;4978655;28;20047;-58
2022/04/07 06:23:45;;;;;;;13.40;2.28;;;7.20;99.90;;;;;;4979101;28;20043;-55
2022/04/07 06:26:12;;;;;;;13.18;2.15;;;7.20;99.90;;;;;;4980442;28;20137;-57
2022/04/07 06:28:40;;;;;;;16.77;2.17;;;7.30;99.90;;;;;;4978860;28;20081;-59
2022/04/07 06:31:07;;;;;;;20.88;2.58;;;7.30;99.90;;;;;;4986119;28;20093;-59
2022/04/07 06:33:34;;;;;;;19.95;3.90;;;7.30;99.90;;;;;;4984286;28;20050;-55
2022/04/07 06:36:20;;;;;;;20.10;2.28;;;7.40;99.90;;;;;;4988174;28;20050;-56
2022/04/07 06:38:47;;;;;;;15.52;3.17;;;7.40;99.90;;;;;;4976165;28;20089;-56
2022/04/07 06:41:14;;;;;;;14.32;4.63;;;7.40;99.90;;;;;;4988013;28;20098;-57
2022/04/07 06:43:41;;;;;;;17.02;2.83;;;7.40;99.90;;;;;;4982263;28;20160;-58
2022/04/07 06:46:07;;;;;;;16.63;2.65;;;7.50;99.90;;;;;;4969603;28;20359;-55
2022/04/07 06:48:35;;;;;;;13.15;2.22;;;7.50;99.90;;;;;;4979349;28;20101;-58
2022/04/07 06:51:02;;;;;;;10.50;2.42;;;7.60;99.90;;;;;;4973966;28;20055;-58
2022/04/07 06:53:28;;;;;;;13.77;2.58;;;7.60;99.90;;;;;;4976327;28;20042;-60
2022/04/07 06:55:55;;;;;;;14.48;2.22;;;7.70;99.90;;;;;;4979320;28;20486;-58
2022/04/07 06:58:22;;;;;;;17.77;2.80;;;7.70;99.90;;;;;;4976000;28;20058;-59
2022/04/07 07:00:49;;;;;;;15.45;3.30;;;7.70;99.90;;;;;;4975841;28;20185;-56
2022/04/07 07:03:16;;;;;;;18.67;2.97;;;7.80;99.90;;;;;;4972382;28;20140;-61
2022/04/07 07:05:43;;;;;;;11.57;2.75;;;7.80;99.90;;;;;;4977107;28;20088;-56
2022/04/07 07:08:13;;;;;;;15.82;2.67;;;7.90;99.90;;;;;;4973963;28;20051;-60
2022/04/07 07:10:41;;;;;;;23.10;2.65;;;7.80;99.90;;;;;;4976952;28;20050;-57
2022/04/07 07:13:08;;;;;;;9.68;2.35;;;7.80;99.90;;;;;;4985466;28;20046;-56
2022/04/07 07:15:35;;;;;;;10.25;2.22;;;7.90;99.90;;;;;;4971719;28;20061;-56
2022/04/07 07:18:02;;;;;;;19.67;2.88;;;7.90;99.90;;;;;;4967114;28;20054;-58
2022/04/07 07:20:29;;;;;;;18.30;2.67;;;8.00;99.90;;;;;;4981235;28;20070;-55
2022/04/07 07:23:01;;;;;;;11.25;1.88;;;8.00;99.90;;;;;;4988058;28;20437;-57
2022/04/07 07:25:30;;;;;;;8.60;2.10;;;8.10;99.90;;;;;;4980834;28;20106;-57
2022/04/07 07:27:58;;;;;;;10.45;1.98;;;8.10;99.90;;;;;;4976638;28;20414;-58
2022/04/07 07:30:25;;;;;;;9.10;1.63;;;8.20;99.90;;;;;;4965656;28;20046;-59
2022/04/07 07:32:57;;;;;;;15.98;2.50;;;8.20;99.90;;;;;;4968489;28;20051;-61
2022/04/07 07:35:24;;;;;;;9.57;1.70;;;8.20;99.90;;;;;;4972030;28;20050;-58
2022/04/07 07:37:52;;;;;;;11.25;1.92;;;8.20;99.90;;;;;;4985095;28;20054;-59
2022/04/07 07:40:21;;;;;;;10.07;2.10;;;8.30;99.90;;;;;;4981308;28;20070;-57
2022/04/07 07:42:49;;;;;;;15.27;2.45;;;8.30;99.90;;;;;;4982418;28;20088;-58
2022/04/07 07:45:16;;;;;;;10.77;2.08;;;8.40;99.90;;;;;;4985957;28;20142;-60
2022/04/07 07:48:03;;;;;;;10.75;2.35;;;8.50;99.90;;;;;;4974611;28;20570;-59
2022/04/07 07:50:30;;;;;;;15.10;2.33;;;8.50;99.90;;;;;;4975169;28;20159;-60
2022/04/07 07:52:57;;;;;;;12.38;2.13;;;8.60;99.90;;;;;;4985018;28;20161;-59
2022/04/07 07:55:24;;;;;;;13.30;3.35;;;8.60;99.90;;;;;;4986814;28;20046;-58
2022/04/07 07:57:50;;;;;;;13.02;2.42;;;8.70;99.90;;;;;;4979809;28;20123;-58
2022/04/07 08:00:17;;;;;;;11.95;1.85;;;8.70;99.90;;;;;;4982384;28;20088;-57
2022/04/07 08:02:44;;;;;;;9.95;2.42;;;8.80;99.90;;;;;;4987060;28;20656;-57
2022/04/07 08:05:11;;;;;;;13.18;2.50;;;8.80;99.90;;;;;;4978616;28;20046;-58
2022/04/07 08:07:40;;;;;;;10.38;2.20;;;8.80;99.90;;;;;;4969500;28;20137;-56
2022/04/07 08:10:07;;;;;;;13.50;2.20;;;8.80;99.90;;;;;;4987415;28;20126;-57
2022/04/07 08:12:34;;;;;;;11.52;2.10;;;8.90;99.90;;;;;;4977433;28;20078;-58
2022/04/07 08:15:01;;;;;;;12.23;2.90;;;8.90;99.90;;;;;;4977160;28;20055;-60
2022/04/07 08:17:28;;;;;;;24.73;4.30;;;9.00;99.90;;;;;;4977593;28;20058;-59
2022/04/07 08:19:54;;;;;;;13.68;2.63;;;9.00;99.90;;;;;;4985621;28;20137;-58
2022/04/07 08:22:21;;;;;;;17.63;2.35;;;8.90;99.90;;;;;;4985186;28;20481;-58
2022/04/07 08:24:48;;;;;;;10.02;2.20;;;9.00;99.90;;;;;;4982789;28;20124;-59
2022/04/07 08:27:15;;;;;;;7.90;1.85;;;9.00;99.90;;;;;;4979194;28;20070;-57
2022/04/07 08:29:41;;;;;;;12.77;2.08;;;8.90;99.90;;;;;;4988644;28;20499;-60
2022/04/07 08:32:08;;;;;;;18.23;2.80;;;9.10;99.90;;;;;;4978328;28;20077;-57
2022/04/07 08:34:36;;;;;;;15.30;4.43;;;9.20;99.90;;;;;;4973947;28;20047;-57
2022/04/07 08:37:04;;;;;;;19.63;4.13;;;9.30;99.90;;;;;;4975531;28;20134;-57
2022/04/07 08:39:30;;;;;;;17.05;2.58;;;9.30;99.70;;;;;;4984605;28;20128;-58
2022/04/07 08:41:57;;;;;;;15.75;2.83;;;9.30;99.90;;;;;;4976276;28;20146;-57
2022/04/07 08:44:31;;;;;;;13.98;2.60;;;9.30;99.90;;;;;;4946729;28;20043;-59
2022/04/07 08:46:58;;;;;;;16.67;2.75;;;9.40;99.90;;;;;;4981987;28;20213;-57
2022/04/07 08:49:27;;;;;;;10.75;1.98;;;9.40;98.60;;;;;;4981678;28;20057;-57
2022/04/07 08:51:54;;;;;;;10.80;2.08;;;9.50;99.60;;;;;;4960202;28;20133;-59
2022/04/07 08:54:21;;;;;;;13.05;2.28;;;9.50;99.90;;;;;;4964272;28;20046;-58
2022/04/07 08:56:48;;;;;;;15.93;2.25;;;9.50;99.50;;;;;;4977924;28;20835;-57
2022/04/07 08:59:15;;;;;;;12.90;2.80;;;9.50;99.40;;;;;;4980151;28;20540;-57
2022/04/07 09:01:43;;;;;;;10.95;1.42;;;9.50;98.30;;;;;;4979683;28;20047;-56
2022/04/07 09:04:13;;;;;;;8.55;1.52;;;9.50;97.60;;;;;;4976000;28;20508;-57
2022/04/07 09:06:41;;;;;;;16.73;2.63;;;9.60;98.40;;;;;;4965868;28;20082;-57
2022/04/07 09:09:12;;;;;;;19.38;3.97;;;9.70;97.10;;;;;;4981663;28;20062;-58
2022/04/07 09:11:41;;;;;;;8.57;2.05;;;9.70;97.50;;;;;;4982357;28;20054;-59
2022/04/07 09:14:11;;;;;;;11.23;2.20;;;9.80;97.30;;;;;;4981285;28;20038;-58
2022/04/07 09:16:39;;;;;;;7.68;1.77;;;10.00;97.60;;;;;;4984560;28;20120;-58
2022/04/07 09:19:06;;;;;;;9.60;1.48;;;10.10;98.30;;;;;;4977650;28;20122;-59
2022/04/07 09:21:34;;;;;;;10.40;1.88;;;10.10;96.40;;;;;;4978227;28;20047;-55
2022/04/07 09:24:05;;;;;;;10.10;1.92;;;10.10;96.60;;;;;;4632110;28;10000340;-59
2022/04/07 09:26:36;;;;;;;13.35;1.60;;;10.10;95.90;;;;;;4982293;28;20069;-57
2022/04/07 09:29:08;;;;;;;14.15;1.85;;;10.00;96.00;;;;;;4980309;28;20109;-59
2022/04/07 09:31:39;;;;;;;9.07;1.40;;;10.00;95.60;;;;;;4975705;28;20058;-57
2022/04/07 09:34:06;;;;;;;7.03;1.40;;;10.00;95.30;;;;;;4978180;28;20042;-62
2022/04/07 09:36:33;;;;;;;14.15;3.05;;;10.10;94.00;;;;;;4975778;28;20058;-58
2022/04/07 09:39:01;;;;;;;15.82;2.63;;;10.40;94.90;;;;;;4978310;28;20153;-58
2022/04/07 09:41:29;;;;;;;9.98;2.00;;;10.60;95.00;;;;;;4977751;28;20057;-57
2022/04/07 09:43:59;;;;;;;11.30;1.58;;;10.40;94.60;;;;;;4966607;28;20106;-56
2022/04/07 09:46:35;;;;;;;15.02;2.20;;;10.20;94.20;;;;;;4976693;28;20078;-58
2022/04/07 09:49:07;;;;;;;4.93;1.70;;;10.50;94.10;;;;;;4976992;28;20053;-58
2022/04/07 09:51:46;;;;;;;5.85;1.83;;;10.60;93.70;;;;;;4980258;28;20105;-58
2022/04/07 09:54:15;;;;;;;12.73;1.95;;;10.80;93.40;;;;;;4981417;28;20046;-57
2022/04/07 09:56:45;;;;;;;15.15;4.18;;;10.80;93.60;;;;;;4981597;28;20050;-60
2022/04/07 09:59:16;;;;;;;6.20;1.48;;;11.00;93.10;;;;;;4976767;28;20057;-58
2022/04/07 10:01:43;;;;;;;7.10;2.22;;;10.80;92.40;;;;;;4976608;28;20471;-58
2022/04/07 10:04:10;;;;;;;10.02;1.67;;;10.50;92.00;;;;;;4979519;28;20050;-58
2022/04/07 10:06:37;;;;;;;13.07;2.25;;;10.50;94.00;;;;;;4976308;28;20133;-55
2022/04/07 10:09:09;;;;;;;9.60;1.70;;;10.70;95.70;;;;;;4984356;28;20564;-57
2022/04/07 10:11:36;;;;;;;6.50;1.73;;;10.90;94.10;;;;;;4974897;28;20054;-57
2022/04/07 10:14:03;;;;;;;8.38;1.67;;;10.80;92.30;;;;;;4985681;28;20433;-57
2022/04/07 10:16:45;;;;;;;9.68;1.63;;;10.80;93.60;;;;;;4972302;28;20058;-59
2022/04/07 10:19:19;;;;;;;9.15;2.30;;;10.90;94.10;;;;;;4985747;28;20078;-58
2022/04/07 10:22:07;;;;;;;5.57;1.40;;;10.90;92.70;;;;;;4977963;28;20109;-58
2022/04/07 10:24:53;;;;;;;15.93;3.53;;;10.90;92.20;;;;;;4974028;28;20624;-57
2022/04/07 10:27:33;;;;;;;6.60;1.90;;;10.90;92.10;;;;;;4977183;28;20051;-55
2022/04/07 10:30:13;;;;;;;11.32;2.63;;;11.00;92.50;;;;;;4935791;28;20589;-58
2022/04/07 10:32:47;;;;;;;9.52;2.03;;;11.00;91.70;;;;;;4983720;28;20069;-58
2022/04/07 10:35:35;;;;;;;;;;;11.20;92.60;;;;;;4968601;28;20105;-58
2022/04/07 10:38:06;;;;;;;6.15;1.77;;;11.40;92.00;;;;;;4991455;28;20400;-57
2022/04/07 10:40:33;;;;;;;5.63;2.35;;;11.10;91.00;;;;;;4967818;28;20493;-56
2022/04/07 10:43:22;;;;;;;13.10;2.30;;;11.30;92.20;;;;;;4976519;28;20530;-58
2022/04/07 10:45:52;;;;;;;13.40;5.07;;;11.40;91.50;;;;;;4969918;28;20050;-57
2022/04/07 10:48:28;;;;;;;11.57;1.73;;;11.30;91.20;;;;;;4976228;28;20057;-58
2022/04/07 10:50:56;;;;;;;6.60;1.95;;;11.30;91.90;;;;;;4981805;28;20060;-58
2022/04/07 10:53:27;;;;;;;11.60;2.42;;;11.40;90.60;;;;;;4976376;28;20059;-58
2022/04/07 10:55:55;;;;;;;8.88;1.90;;;11.50;90.60;;;;;;4968583;28;20046;-61
2022/04/07 10:58:46;;;;;;;9.00;2.58;;;11.70;90.70;;;;;;4973835;28;20078;-58
2022/04/07 11:01:33;;;;;;;8.55;1.60;;;11.80;90.90;;;;;;4974597;28;20117;-59
2022/04/07 11:04:21;;;;;;;8.20;1.35;;;11.50;88.70;;;;;;4984920;28;20047;-56
2022/04/07 11:07:15;;;;;;;6.03;1.38;;;11.40;87.30;;;;;;4981410;28;20133;-56
2022/04/07 11:09:57;;;;;;;16.13;1.77;;;11.40;87.80;;;;;;4970162;28;20137;-58
2022/04/07 11:12:25;;;;;;;8.82;1.45;;;11.30;87.60;;;;;;4976969;28;20595;-58
2022/04/07 11:15:04;;;;;;;8.82;1.65;;;11.40;88.70;;;;;;4969884;28;20580;-57
2022/04/07 11:17:37;;;;;;;10.20;1.75;;;11.50;86.40;;;;;;4975346;28;20128;-58
2022/04/07 11:20:16;;;;;;;6.33;1.43;;;11.40;87.70;;;;;;4973477;28;20105;-57
2022/04/07 11:22:48;;;;;;;5.93;1.30;;;11.50;88.40;;;;;;4973549;28;20410;-57
2022/04/07 11:25:20;;;;;;;10.13;1.77;;;11.40;88.90;;;;;;4970110;28;20078;-57
2022/04/07 11:28:05;;;;;;;4.75;1.40;;;11.60;89.30;;;;;;4974746;28;20184;-55
2022/04/07 11:30:50;;;;;;;6.75;1.90;;;11.80;89.00;;;;;;4980450;28;20057;-54
2022/04/07 11:33:26;;;;;;;1.83;0.82;;;11.80;85.80;;;;;;4978949;28;20574;-57
2022/04/07 11:35:59;;;;;;;6.10;1.25;;;11.70;84.70;;;;;;4979754;28;20068;-58
2022/04/07 11:38:33;;;;;;;4.35;1.25;;;11.90;84.30;;;;;;4978260;28;20129;-57
2022/04/07 11:41:13;;;;;;;5.00;1.42;;;11.80;82.20;;;;;;4978994;28;20047;-54
2022/04/07 11:43:41;;;;;;;10.02;1.50;;;11.90;85.00;;;;;;4968392;28;20229;-56
2022/04/07 11:46:08;;;;;;;6.32;1.30;;;11.90;86.30;;;;;;4970491;28;20395;-57
2022/04/07 11:48:55;;;;;;;5.97;1.52;;;11.90;82.00;;;;;;4975718;28;20490;-56
2022/04/07 11:51:24;;;;;;;10.93;1.58;;;11.90;84.00;;;;;;4981134;28;20600;-58
2022/04/07 11:53:54;;;;;;;11.15;2.72;;;12.40;86.90;;;;;;4962210;28;20232;-57
2022/04/07 11:56:26;;;;;;;10.57;2.03;;;12.70;84.20;;;;;;4982671;28;20062;-57
2022/04/07 11:58:53;;;;;;;6.40;1.13;;;12.60;83.90;;;;;;4982398;28;20050;-59
2022/04/07 12:01:21;;;;;;;8.25;1.85;;;12.80;79.80;;;;;;4980261;28;20144;-59
2022/04/07 12:03:52;;;;;;;5.60;1.05;;;12.70;80.40;;;;;;4949182;28;20065;-58
2022/04/07 12:06:32;;;;;;;22.55;3.15;;;12.90;79.70;;;;;;4993005;28;20050;-59
2022/04/07 12:09:01;;;;;;;9.32;1.98;;;12.90;76.50;;;;;;4981015;28;20047;-58
2022/04/07 12:11:30;;;;;;;6.05;1.17;;;12.70;75.70;;;;;;4979774;28;20508;-58
2022/04/07 12:13:58;;;;;;;12.50;2.75;;;12.80;75.00;;;;;;4982123;28;20062;-58
2022/04/07 12:16:25;;;;;;;5.50;1.35;;;12.80;74.60;;;;;;4963735;28;20237;-58
2022/04/07 12:18:56;;;;;;;5.75;1.27;;;12.70;73.30;;;;;;4982904;28;20055;-58
2022/04/07 12:21:23;;;;;;;4.03;1.40;;;12.70;75.20;;;;;;4980173;28;20106;-58
2022/04/07 12:24:06;;;;;;;4.13;1.17;;;12.70;73.60;;;;;;4977294;28;20090;-59
2022/04/07 12:26:49;;;;;;;3.15;1.40;;;12.90;72.90;;;;;;4981058;28;20061;-59
2022/04/07 12:29:19;;;;;;;6.38;1.35;;;12.90;73.20;;;;;;4980499;28;20050;-58
2022/04/07 12:31:57;;;;;;;2.97;1.13;;;12.70;73.70;;;;;;4965990;28;20119;-59
2022/04/07 12:34:24;;;;;;;3.88;1.05;;;12.60;71.50;;;;;;4967314;28;20089;-56
2022/04/07 12:36:52;;;;;;;15.70;1.35;;;12.50;71.60;;;;;;4979698;28;20133;-58
2022/04/07 12:39:32;;;;;;;1.27;0.57;;;12.40;75.10;;;;;;4984837;28;20082;-59
2022/04/07 12:42:08;;;;;;;2.47;0.90;;;12.30;68.30;;;;;;4980891;28;20131;-60
2022/04/07 12:44:36;;;;;;;3.58;0.82;;;12.30;70.50;;;;;;4975710;28;20042;-57
2022/04/07 12:47:14;;;;;;;4.07;0.98;;;12.10;71.00;;;;;;4976288;28;20054;-57
2022/04/07 12:49:56;;;;;;;4.10;0.93;;;12.30;72.50;;;;;;4975939;28;20062;-59
2022/04/07 12:52:37;;;;;;;7.97;1.67;;;12.60;73.70;;;;;;4977725;28;20140;-56
2022/04/07 12:55:10;;;;;;;5.43;1.42;;;12.60;73.40;;;;;;4977374;28;20074;-58
2022/04/07 12:57:39;;;;;;;2.08;1.08;;;12.80;72.50;;;;;;4984993;28;20094;-54